Time;durP1;ratioP1;P1;durP2;ratioP2;P2;SDS_P1;SDS_P2;PMS_P1;PMS_P2;Temp;Humidity;BMP_temperature;BMP_pressure;BME280_temperature;BME280_humidity;BME280_pressure;Samples;Min_cycle;Max_cycle;Signal;HPM_P1;HPM_P2
2022/07/19 00:02:15;;;;;;;7.50;5.28;;;;;;;20.61;64.76;101723.53;5063155;28;20036;-75
2022/07/19 00:04:41;;;;;;;8.13;5.05;;;;;;;20.60;63.86;101726.25;5064435;28;20101;-75
2022/07/19 00:07:06;;;;;;;6.82;5.38;;;;;;;20.59;62.48;101724.56;5063466;28;20074;-74
2022/07/19 00:09:32;;;;;;;8.20;5.60;;;;;;;20.55;64.15;101721.22;5064022;28;20052;-75
2022/07/19 00:11:57;;;;;;;6.72;5.50;;;;;;;20.55;62.59;101726.53;5063001;28;20029;-74
2022/07/19 00:14:23;;;;;;;8.52;5.93;;;;;;;20.52;61.83;101717.88;5062822;28;20460;-75
2022/07/19 00:16:48;;;;;;;9.40;6.22;;;;;;;20.46;62.06;101711.13;5065634;28;20020;-75
2022/07/19 00:19:14;;;;;;;13.73;6.03;;;;;;;20.39;62.52;101721.19;5063985;28;20027;-74
2022/07/19 00:21:39;;;;;;;7.82;5.60;;;;;;;20.34;63.65;101722.38;5062045;28;20059;-74
2022/07/19 00:24:05;;;;;;;9.50;5.78;;;;;;;20.33;62.06;101718.84;5047183;28;20078;-74
2022/07/19 00:26:30;;;;;;;9.13;5.45;;;;;;;20.31;62.22;101715.47;5062265;28;20479;-74
2022/07/19 00:28:56;;;;;;;7.28;5.25;;;;;;;20.29;62.33;101714.69;5059636;28;20056;-74
2022/07/19 00:31:24;;;;;;;8.50;5.43;;;;;;;20.26;62.59;101714.84;5065368;28;20028;-75
2022/07/19 00:33:51;;;;;;;6.30;5.15;;;;;;;20.24;62.57;101711.44;5054260;28;20124;-75
2022/07/19 00:36:17;;;;;;;6.75;5.20;;;;;;;20.16;64.48;101703.91;5064894;28;20037;-75
2022/07/19 00:38:42;;;;;;;7.63;5.00;;;;;;;20.08;64.18;101706.97;5066131;28;20112;-74
2022/07/19 00:41:07;;;;;;;7.03;4.95;;;;;;;20.03;64.26;101701.06;5061979;28;20190;-74
2022/07/19 00:43:33;;;;;;;5.57;4.63;;;;;;;19.97;65.68;101704.03;5058965;28;20102;-75
2022/07/19 00:45:58;;;;;;;7.03;4.70;;;;;;;19.95;65.67;101708.53;5062945;28;20174;-75
2022/07/19 00:48:24;;;;;;;6.10;4.93;;;;;;;19.91;65.10;101709.63;5060235;28;20025;-74
2022/07/19 00:50:49;;;;;;;9.18;5.10;;;;;;;19.88;63.76;101704.50;5062991;28;20489;-75
2022/07/19 00:53:16;;;;;;;9.68;4.95;;;;;;;19.86;62.93;101701.91;5063210;28;20139;-74
2022/07/19 00:55:44;;;;;;;9.95;5.90;;;;;;;19.80;63.40;101708.38;5059369;28;20589;-74
2022/07/19 00:58:10;;;;;;;8.07;5.60;;;;;;;19.76;65.11;101698.88;5062250;28;20200;-74
2022/07/19 01:00:38;;;;;;;7.30;5.35;;;;;;;19.72;65.76;101692.03;5062310;28;20050;-74
2022/07/19 01:03:05;;;;;;;6.15;4.97;;;;;;;19.69;66.03;101694.84;5062884;28;20029;-74
2022/07/19 01:05:31;;;;;;;8.05;4.97;;;;;;;19.65;66.59;101695.91;5063473;28;20062;-75
2022/07/19 01:07:57;;;;;;;5.93;4.90;;;;;;;19.62;66.51;101690.81;5065898;28;20028;-74
2022/07/19 01:10:22;;;;;;;7.28;4.63;;;;;;;19.60;66.56;101692.69;5064388;28;20024;-75
2022/07/19 01:12:47;;;;;;;6.07;4.97;;;;;;;19.55;66.74;101688.47;5063990;28;20102;-74
2022/07/19 01:15:20;;;;;;;10.68;5.65;;;;;;;19.53;65.92;101689.50;5060719;28;20032;-75
2022/07/19 01:17:46;;;;;;;8.23;5.32;;;;;;;19.51;65.32;101691.34;5063855;28;20071;-75
2022/07/19 01:20:12;;;;;;;8.73;5.50;;;;;;;19.50;64.55;101693.13;5066184;28;20020;-75
2022/07/19 01:22:37;;;;;;;7.65;5.53;;;;;;;19.48;64.32;101694.97;5063315;28;20042;-75
2022/07/19 01:25:04;;;;;;;8.20;5.68;;;;;;;19.46;63.91;101702.16;5061940;28;20468;-74
2022/07/19 01:27:29;;;;;;;6.85;5.75;;;;;;;19.44;64.33;101690.81;5063052;28;20115;-74
2022/07/19 01:29:55;;;;;;;7.93;5.88;;;;;;;19.40;64.20;101690.09;5064536;28;20103;-74
2022/07/19 01:32:20;;;;;;;10.02;5.43;;;;;;;19.40;63.93;101694.53;5066412;28;20055;-74
2022/07/19 01:34:45;;;;;;;8.57;6.38;;;;;;;19.35;63.12;101692.13;5065717;28;20032;-74
2022/07/19 01:37:10;;;;;;;8.25;6.38;;;;;;;19.34;63.39;101694.81;5048574;28;20032;-74
2022/07/19 01:39:36;;;;;;;9.25;6.47;;;;;;;19.32;64.49;101699.31;5063078;28;20047;-74
2022/07/19 01:42:01;;;;;;;7.82;6.00;;;;;;;19.29;65.45;101695.03;5064410;28;20126;-74
2022/07/19 01:44:26;;;;;;;9.02;5.88;;;;;;;19.27;64.63;101691.63;5067595;28;20039;-75
2022/07/19 01:46:51;;;;;;;9.10;5.90;;;;;;;19.25;65.16;101697.00;5067287;28;20472;-75
2022/07/19 01:49:17;;;;;;;8.40;6.32;;;;;;;19.23;65.21;101698.84;5064926;28;20032;-74
2022/07/19 01:51:42;;;;;;;10.25;6.05;;;;;;;19.20;65.54;101696.34;5063284;28;20683;-75
2022/07/19 01:54:07;;;;;;;8.43;6.18;;;;;;;19.20;65.23;101699.00;5069549;28;20078;-74
2022/07/19 01:56:33;;;;;;;6.75;5.72;;;;;;;19.16;65.28;101689.50;5069390;28;20555;-74
2022/07/19 01:58:58;;;;;;;10.43;6.20;;;;;;;19.13;66.04;101689.66;5070306;28;20028;-74
2022/07/19 02:01:23;;;;;;;10.00;6.18;;;;;;;19.10;65.86;101688.03;5064873;28;20794;-74
2022/07/19 02:03:48;;;;;;;7.53;5.88;;;;;;;19.09;66.07;101685.47;5068985;28;20070;-74
2022/07/19 02:06:14;;;;;;;9.45;6.38;;;;;;;19.07;66.03;101688.16;5067464;28;20020;-74
2022/07/19 02:08:40;;;;;;;6.93;5.35;;;;;;;19.04;66.27;101692.75;5067466;28;20038;-74
2022/07/19 02:13:50;;;;;;;9.75;5.60;;;;;;;18.91;67.39;101685.41;5062263;28;20094;-74
2022/07/19 02:16:15;;;;;;;8.65;5.57;;;;;;;18.88;67.74;101685.53;5067474;28;20045;-74
2022/07/19 02:18:40;;;;;;;8.75;5.72;;;;;;;18.85;67.34;101683.03;5067671;28;20374;-74
2022/07/19 02:21:06;;;;;;;8.23;5.50;;;;;;;18.84;68.91;101683.97;5068914;28;20036;-74
2022/07/19 02:23:31;;;;;;;7.22;5.55;;;;;;;18.81;68.55;101676.19;5066566;28;20021;-75
2022/07/19 02:25:56;;;;;;;7.40;5.82;;;;;;;18.80;68.55;101680.63;5070472;28;20024;-74
2022/07/19 02:28:21;;;;;;;7.75;5.78;;;;;;;18.79;67.65;101670.13;5064102;28;20025;-74
2022/07/19 02:30:47;;;;;;;7.47;6.10;;;;;;;18.79;66.60;101665.75;5066163;28;20024;-74
2022/07/19 02:33:12;;;;;;;11.52;7.03;;;;;;;18.79;65.67;101673.66;5066692;28;20052;-74
2022/07/19 02:35:37;;;;;;;10.10;7.07;;;;;;;18.78;66.16;101668.47;5066391;28;20025;-74
2022/07/19 02:38:02;;;;;;;8.05;6.82;;;;;;;18.73;67.77;101663.38;5065435;28;20492;-74
2022/07/19 02:40:28;;;;;;;7.97;7.03;;;;;;;18.72;67.09;101671.38;5065291;28;20066;-74
2022/07/19 02:42:53;;;;;;;10.50;6.85;;;;;;;18.69;68.03;101671.50;5065307;28;20103;-74
2022/07/19 02:45:18;;;;;;;9.00;7.20;;;;;;;18.67;67.85;101671.59;5066045;28;20028;-74
2022/07/19 02:47:43;;;;;;;9.70;7.32;;;;;;;18.65;66.56;101669.00;5044417;28;20024;-74
2022/07/19 02:50:09;;;;;;;11.45;7.70;;;;;;;18.65;65.82;101661.09;5064427;28;20403;-73
2022/07/19 02:52:34;;;;;;;10.95;7.43;;;;;;;18.63;66.11;101662.94;5066843;28;20024;-74
2022/07/19 02:55:00;;;;;;;9.05;7.38;;;;;;;18.62;68.21;101665.66;5064271;28;20398;-75
2022/07/19 02:57:25;;;;;;;9.15;7.30;;;;;;;18.61;65.80;101663.97;5068675;28;20422;-74
2022/07/19 02:59:50;;;;;;;12.95;8.52;;;;;;;18.57;67.72;101665.91;5063159;28;20028;-74
2022/07/19 03:02:16;;;;;;;9.30;7.00;;;;;;;18.53;68.37;101661.69;5060949;28;20017;-74
2022/07/19 03:04:41;;;;;;;7.85;6.97;;;;;;;18.50;67.95;101664.47;5064914;28;20047;-74
2022/07/19 03:07:06;;;;;;;9.38;7.10;;;;;;;18.45;68.08;101658.53;5068811;28;20059;-74
2022/07/19 03:09:32;;;;;;;9.38;7.05;;;;;;;18.42;67.69;101659.53;5061221;28;20036;-75
2022/07/19 03:11:57;;;;;;;10.55;7.70;;;;;;;18.44;66.85;101659.50;5061897;28;20046;-74
2022/07/19 03:14:22;;;;;;;9.65;8.13;;;;;;;18.44;66.44;101659.50;5068362;28;20920;-74
2022/07/19 03:16:48;;;;;;;12.77;8.80;;;;;;;18.40;66.46;101655.28;5066385;28;20016;-74
2022/07/19 03:19:13;;;;;;;10.85;8.70;;;;;;;18.38;67.81;101646.59;5047132;28;20025;-74
2022/07/19 03:21:38;;;;;;;11.20;8.55;;;;;;;18.34;67.06;101646.72;5063249;28;20475;-74
2022/07/19 03:24:03;;;;;;;9.00;7.70;;;;;;;18.32;68.03;101647.72;5062925;28;20020;-74
2022/07/19 03:26:29;;;;;;;9.32;7.57;;;;;;;18.27;67.90;101642.66;5066069;28;20020;-74
2022/07/19 03:28:54;;;;;;;8.93;7.90;;;;;;;18.23;67.09;101646.38;5063650;28;20033;-74
2022/07/19 03:31:19;;;;;;;11.63;8.05;;;;;;;18.19;68.09;101650.06;5065209;28;20464;-74
2022/07/19 03:33:45;;;;;;;10.23;7.30;;;;;;;18.16;68.89;101642.28;5067439;28;20052;-74
2022/07/19 03:36:10;;;;;;;9.32;7.75;;;;;;;18.14;69.71;101639.72;5060094;28;20104;-74
2022/07/19 03:38:35;;;;;;;8.40;7.43;;;;;;;18.13;69.54;101642.41;5047547;28;20024;-74
2022/07/19 03:41:01;;;;;;;9.52;7.18;;;;;;;18.12;70.08;101640.69;5061356;28;20048;-74
2022/07/19 03:43:26;;;;;;;9.13;7.55;;;;;;;18.10;68.41;101638.16;5066017;28;20030;-74
2022/07/19 03:45:52;;;;;;;8.82;7.88;;;;;;;18.11;67.73;101645.13;5065035;28;20032;-74
2022/07/19 03:48:17;;;;;;;9.18;7.60;;;;;;;18.09;67.67;101644.34;5064203;28;20071;-74
2022/07/19 03:50:43;;;;;;;9.57;8.57;;;;;;;18.08;67.43;101633.88;5065119;28;20035;-74
2022/07/19 03:53:08;;;;;;;12.55;8.98;;;;;;;18.07;67.58;101643.56;5063288;28;20459;-74
2022/07/19 03:55:34;;;;;;;12.60;9.23;;;;;;;18.03;67.66;101642.84;5065199;28;20526;-74
2022/07/19 03:57:59;;;;;;;12.55;9.13;;;;;;;18.01;67.69;101649.94;5063939;28;20032;-74
2022/07/19 04:00:25;;;;;;;11.98;9.10;;;;;;;18.00;67.38;101653.50;5067672;28;20024;-74
2022/07/19 04:02:50;;;;;;;11.07;7.88;;;;;;;18.00;67.52;101640.34;5063824;28;20036;-75
2022/07/19 04:05:15;;;;;;;9.38;7.30;;;;;;;18.01;67.38;101652.59;5066039;28;20020;-75
2022/07/19 04:07:41;;;;;;;10.32;7.97;;;;;;;17.99;67.22;101651.78;5064749;28;20028;-74
2022/07/19 04:10:07;;;;;;;8.52;7.65;;;;;;;17.99;69.03;101656.22;5063341;28;20089;-74
2022/07/19 04:12:34;;;;;;;8.27;7.00;;;;;;;17.99;67.89;101651.78;5065838;28;20345;-74
2022/07/19 04:15:00;;;;;;;11.35;7.15;;;;;;;18.00;67.75;101652.66;5064334;28;20086;-74
2022/07/19 04:17:26;;;;;;;11.20;7.90;;;;;;;17.99;67.97;101657.06;5066092;28;20176;-74
2022/07/19 04:19:51;;;;;;;10.13;7.78;;;;;;;18.02;67.73;101653.41;5047600;28;20238;-74
2022/07/19 04:22:17;;;;;;;8.98;6.57;;;;;;;18.03;67.89;101657.75;5064333;28;20025;-74
2022/07/19 04:24:42;;;;;;;13.52;7.22;;;;;;;18.04;68.38;101648.94;5064825;28;20467;-74
2022/07/19 04:27:07;;;;;;;9.93;7.05;;;;;;;18.01;69.50;101651.75;5061925;28;20033;-74
2022/07/19 04:29:33;;;;;;;8.77;6.75;;;;;;;18.00;69.21;101650.03;5064276;28;20020;-74
2022/07/19 04:31:58;;;;;;;11.07;6.97;;;;;;;18.00;69.06;101653.50;5065587;28;20021;-74
2022/07/19 04:34:23;;;;;;;8.18;7.38;;;;;;;18.01;68.30;101655.22;5042600;28;20033;-74
2022/07/19 04:36:48;;;;;;;10.15;7.43;;;;;;;18.02;68.31;101651.66;5064708;28;20032;-74
2022/07/19 04:39:14;;;;;;;8.52;7.63;;;;;;;18.06;68.23;101647.09;5067013;28;20028;-74
2022/07/19 04:41:39;;;;;;;9.35;7.85;;;;;;;18.09;69.28;101644.34;5055754;28;20045;-74
2022/07/19 04:44:04;;;;;;;11.60;8.52;;;;;;;18.12;68.85;101645.97;5065554;28;20074;-75
2022/07/19 04:46:30;;;;;;;12.27;8.40;;;;;;;18.12;68.91;101646.84;5060953;28;20027;-74
2022/07/19 04:48:55;;;;;;;11.15;8.13;;;;;;;18.14;69.74;101647.63;5064140;28;20025;-74
2022/07/19 04:51:20;;;;;;;9.57;7.88;;;;;;;18.18;68.17;101645.72;5043741;28;20460;-74
2022/07/19 04:53:45;;;;;;;10.05;8.13;;;;;;;18.22;68.53;101652.56;5061282;28;20041;-74
2022/07/19 04:56:11;;;;;;;9.63;8.25;;;;;;;18.23;68.90;101643.72;5066040;28;20471;-74
2022/07/19 04:58:36;;;;;;;12.82;8.45;;;;;;;18.26;69.15;101646.22;5065268;28;20077;-74
2022/07/19 05:01:01;;;;;;;12.98;8.68;;;;;;;18.31;69.43;101646.00;5059003;28;20032;-74
2022/07/19 05:03:26;;;;;;;15.60;8.57;;;;;;;18.35;69.19;101647.59;5063722;28;20021;-74
2022/07/19 05:05:52;;;;;;;13.18;9.20;;;;;;;18.39;70.17;101643.88;5063680;28;20487;-74
2022/07/19 05:08:17;;;;;;;11.70;9.45;;;;;;;18.44;69.72;101648.94;5068097;28;20184;-74
2022/07/19 05:10:43;;;;;;;11.85;9.40;;;;;;;18.50;70.36;101644.25;5073867;28;20395;-74
2022/07/19 05:13:08;;;;;;;12.02;9.38;;;;;;;18.55;69.47;101649.28;5061669;28;20048;-74
2022/07/19 05:15:34;;;;;;;11.82;9.93;;;;;;;18.62;68.51;101648.06;5070530;28;20055;-74
2022/07/19 05:17:59;;;;;;;12.05;9.70;;;;;;;18.68;68.60;101646.94;5067881;28;20039;-74
2022/07/19 05:20:24;;;;;;;14.80;10.25;;;;;;;18.73;68.02;101642.28;5066568;28;20021;-75
2022/07/19 05:22:50;;;;;;;14.73;9.80;;;;;;;18.80;70.62;101653.41;5068975;28;20021;-74
2022/07/19 05:25:16;;;;;;;13.82;10.05;;;;;;;18.85;68.99;101653.19;5063399;28;20047;-74
2022/07/19 05:27:43;;;;;;;12.45;10.10;;;;;;;18.93;68.57;101651.03;5058486;28;20419;-74
2022/07/19 05:30:08;;;;;;;11.45;10.00;;;;;;;18.99;69.16;101653.41;5059570;28;20070;-74
2022/07/19 05:32:34;;;;;;;12.10;10.30;;;;;;;19.07;68.96;101650.41;5062432;28;20106;-74
2022/07/19 05:34:59;;;;;;;11.63;10.43;;;;;;;19.14;69.32;101651.78;5061690;28;20480;-74
2022/07/19 05:37:24;;;;;;;17.33;10.55;;;;;;;19.22;68.68;101657.56;5066905;28;20052;-74
2022/07/19 05:39:49;;;;;;;10.75;9.65;;;;;;;19.29;68.84;101654.63;5066865;28;20043;-74
2022/07/19 05:42:15;;;;;;;12.88;10.05;;;;;;;19.38;66.94;101659.44;5065727;28;20399;-74
2022/07/19 05:44:40;;;;;;;10.80;9.18;;;;;;;19.44;67.59;101653.00;5060056;28;20040;-74
2022/07/19 05:47:06;;;;;;;11.48;9.55;;;;;;;19.53;66.04;101658.66;5064559;28;20040;-74
2022/07/19 05:49:31;;;;;;;12.35;9.70;;;;;;;19.62;65.26;101661.78;5066874;28;20054;-74
2022/07/19 05:51:56;;;;;;;14.40;9.73;;;;;;;19.70;64.61;101652.53;5069544;28;20047;-74
2022/07/19 05:54:22;;;;;;;15.07;10.13;;;;;;;19.79;63.35;101647.69;5069361;28;20044;-74
2022/07/19 05:56:47;;;;;;;14.65;9.52;;;;;;;19.92;63.83;101658.50;5060910;28;20099;-74
2022/07/19 05:59:12;;;;;;;12.85;9.15;;;;;;;20.02;63.25;101660.59;5063342;28;20029;-74
2022/07/19 06:01:38;;;;;;;10.00;8.73;;;;;;;20.11;64.33;101655.75;5060780;28;20056;-74
2022/07/19 06:04:03;;;;;;;11.57;8.60;;;;;;;20.20;62.31;101657.91;5060615;28;20024;-74
2022/07/19 06:06:31;;;;;;;11.95;8.77;;;;;;;20.29;63.43;101653.94;5063330;28;20429;-74
2022/07/19 06:08:58;;;;;;;10.77;8.50;;;;;;;20.38;63.46;101655.22;5063131;28;20029;-74
2022/07/19 06:11:24;;;;;;;11.07;9.13;;;;;;;20.44;63.75;101655.72;5043929;28;20459;-74
2022/07/19 06:13:50;;;;;;;11.60;8.10;;;;;;;20.51;64.19;101656.25;5059723;28;20036;-74
2022/07/19 06:16:16;;;;;;;9.98;8.38;;;;;;;20.58;62.40;101656.75;5066819;28;20024;-74
2022/07/19 06:18:41;;;;;;;13.15;8.35;;;;;;;20.68;63.15;101662.38;5069236;28;20032;-74
2022/07/19 06:21:15;;;;;;;13.38;8.75;;;;;;;20.74;63.02;101668.19;5066538;28;20112;-74
2022/07/19 06:23:41;;;;;;;16.27;9.13;;;;;;;20.80;63.67;101667.03;5063176;28;20024;-74
2022/07/19 06:26:07;;;;;;;13.43;8.68;;;;;;;20.86;63.30;101665.81;5056599;28;20530;-74
2022/07/19 06:28:33;;;;;;;12.15;8.82;;;;;;;20.92;63.19;101674.25;5063244;28;20056;-74
2022/07/19 06:30:59;;;;;;;15.10;9.30;;;;;;;20.98;63.29;101664.28;5056006;28;20060;-74
2022/07/19 06:33:24;;;;;;;14.07;8.38;;;;;;;21.05;62.80;101671.78;5041441;28;20068;-74
2022/07/19 06:35:49;;;;;;;10.45;7.68;;;;;;;21.12;61.62;101668.78;5065679;28;20043;-74
2022/07/19 06:38:15;;;;;;;10.40;7.90;;;;;;;21.20;61.90;101671.81;5059804;28;20408;-74
2022/07/19 06:40:41;;;;;;;11.38;8.38;;;;;;;21.28;61.26;101666.97;5067280;28;20044;-74
2022/07/19 06:43:06;;;;;;;9.55;7.15;;;;;;;21.34;60.49;101666.63;5062810;28;20024;-74
2022/07/19 06:45:31;;;;;;;9.27;7.55;;;;;;;21.42;60.84;101658.22;5059398;28;20037;-74
2022/07/19 06:47:56;;;;;;;11.13;7.47;;;;;;;21.50;60.28;101657.78;5059357;28;20021;-74
2022/07/19 06:50:22;;;;;;;9.70;7.40;;;;;;;21.58;59.65;101655.50;5061629;28;20139;-74
2022/07/19 06:52:48;;;;;;;9.45;7.95;;;;;;;21.66;59.79;101661.25;5058520;28;20032;-74
2022/07/19 06:55:13;;;;;;;12.43;7.68;;;;;;;21.76;61.00;101660.69;5059663;28;20071;-75
2022/07/19 06:57:38;;;;;;;11.07;7.95;;;;;;;21.86;59.90;101661.84;5059143;28;20037;-75
2022/07/19 07:00:07;;;;;;;13.98;8.00;;;;;;;21.91;58.35;101654.44;5058066;28;20025;-74
2022/07/19 07:02:32;;;;;;;14.27;7.55;;;;;;;21.98;58.50;101655.78;5072070;28;20024;-75
2022/07/19 07:04:58;;;;;;;10.77;7.38;;;;;;;22.07;58.32;101649.06;5068272;28;20036;-75
2022/07/19 07:07:23;;;;;;;11.52;8.00;;;;;;;22.21;57.03;101648.19;5070384;28;20023;-74
2022/07/19 07:09:48;;;;;;;12.20;7.57;;;;;;;22.36;56.84;101651.69;5072134;28;20028;-74
2022/07/19 07:12:13;;;;;;;11.45;7.22;;;;;;;22.52;56.21;101654.28;5064607;28;20098;-75
2022/07/19 07:14:39;;;;;;;10.95;7.65;;;;;;;22.65;56.89;101648.16;5073042;28;20038;-74
2022/07/19 07:17:04;;;;;;;12.90;7.45;;;;;;;22.77;56.78;101652.69;5067742;28;20025;-74
2022/07/19 07:19:30;;;;;;;14.38;7.45;;;;;;;22.91;56.57;101640.31;5057469;28;20041;-74
2022/07/19 07:21:57;;;;;;;13.38;7.80;;;;;;;23.01;56.37;101644.91;5062963;28;20108;-75
2022/07/19 07:24:23;;;;;;;16.75;8.10;;;;;;;23.10;55.33;101648.75;5054780;28;20063;-74
2022/07/19 07:26:48;;;;;;;10.80;7.30;;;;;;;23.18;55.72;101646.47;5059522;28;20493;-74
2022/07/19 07:29:13;;;;;;;13.88;7.72;;;;;;;23.27;55.67;101654.78;5059001;28;20036;-75
2022/07/19 07:31:38;;;;;;;13.13;7.38;;;;;;;23.32;54.26;101647.38;5060035;28;20025;-75
2022/07/19 07:34:04;;;;;;;11.52;7.25;;;;;;;23.40;54.32;101650.34;5067257;28;20053;-75
2022/07/19 07:36:29;;;;;;;11.35;6.80;;;;;;;23.49;53.04;101648.88;5064872;28;20107;-75
2022/07/19 07:38:54;;;;;;;11.93;6.90;;;;;;;23.58;54.01;101650.03;5061484;28;20035;-75
2022/07/19 07:41:20;;;;;;;9.57;6.35;;;;;;;23.65;54.46;101646.88;5060203;28;20055;-75
2022/07/19 07:43:45;;;;;;;10.02;6.80;;;;;;;23.71;53.52;101648.28;5061865;28;20020;-74
2022/07/19 07:46:10;;;;;;;11.88;6.68;;;;;;;23.78;54.87;101643.38;5057379;28;20422;-75
2022/07/19 07:48:36;;;;;;;10.15;6.53;;;;;;;23.83;54.04;101635.09;5056238;28;20033;-75
2022/07/19 07:51:01;;;;;;;9.00;5.78;;;;;;;23.90;54.00;101634.56;5057112;28;20111;-75
2022/07/19 07:53:26;;;;;;;12.70;6.50;;;;;;;23.98;52.73;101634.03;5056109;28;20035;-74
2022/07/19 07:55:52;;;;;;;8.85;6.78;;;;;;;24.03;54.81;101631.91;5057235;28;20025;-74
2022/07/19 07:58:17;;;;;;;8.90;5.95;;;;;;;24.08;54.70;101631.59;5056831;28;20373;-75
2022/07/19 08:00:42;;;;;;;9.63;6.50;;;;;;;24.10;54.19;101633.16;5056152;28;20039;-75
2022/07/19 08:03:07;;;;;;;9.32;6.18;;;;;;;24.18;53.80;101629.97;5057804;28;20025;-74
2022/07/19 08:05:33;;;;;;;12.60;5.97;;;;;;;24.30;51.53;101620.25;5059073;28;20021;-74
2022/07/19 08:08:00;;;;;;;9.93;5.75;;;;;;;24.44;50.49;101621.94;5062630;28;20479;-74
2022/07/19 08:10:27;;;;;;;10.55;5.88;;;;;;;24.56;50.52;101622.84;5061938;28;20089;-75
2022/07/19 08:12:53;;;;;;;10.02;5.43;;;;;;;24.66;53.33;101623.03;5060015;28;20029;-74
2022/07/19 08:15:19;;;;;;;7.35;5.70;;;;;;;24.73;52.04;101624.28;5056658;28;20017;-75
2022/07/19 08:17:44;;;;;;;8.63;5.10;;;;;;;24.81;52.44;101626.38;5057156;28;20028;-75
2022/07/19 08:20:10;;;;;;;11.95;5.82;;;;;;;24.90;52.23;101620.41;5063613;28;20510;-74
2022/07/19 08:22:35;;;;;;;8.95;5.95;;;;;;;25.00;52.71;101618.72;5059816;28;20498;-74
2022/07/19 08:25:01;;;;;;;7.72;5.30;;;;;;;25.09;52.81;101613.69;5057618;28;20517;-74
2022/07/19 08:27:26;;;;;;;8.18;5.63;;;;;;;25.20;52.37;101612.84;5054460;28;20025;-74
2022/07/19 08:29:51;;;;;;;10.45;5.35;;;;;;;25.28;51.94;101616.63;5057844;28;20032;-74
2022/07/19 08:32:17;;;;;;;10.82;4.90;;;;;;;25.40;51.95;101616.69;5057921;28;20036;-75
2022/07/19 08:34:42;;;;;;;8.38;4.97;;;;;;;25.48;52.20;101611.63;5059384;28;20090;-75
2022/07/19 08:37:07;;;;;;;7.18;5.40;;;;;;;25.57;51.01;101618.91;5059625;28;21298;-75
2022/07/19 08:39:33;;;;;;;7.93;4.80;;;;;;;25.66;51.23;101611.16;5055296;28;20036;-74
2022/07/19 08:41:58;;;;;;;9.85;4.75;;;;;;;25.73;50.98;101607.06;5056860;28;20040;-74
2022/07/19 08:44:25;;;;;;;7.35;4.20;;;;;;;25.78;51.88;101610.22;5061748;28;20040;-75
2022/07/19 08:46:50;;;;;;;8.30;4.72;;;;;;;25.83;49.46;101610.69;5061206;28;20116;-75
2022/07/19 08:49:15;;;;;;;6.43;4.03;;;;;;;25.93;49.28;101608.16;5064181;28;20112;-74
2022/07/19 08:51:42;;;;;;;6.70;3.53;;;;;;;26.02;49.63;101604.78;5065871;28;20484;-75
2022/07/19 08:54:07;;;;;;;9.63;4.50;;;;;;;26.11;48.52;101605.00;5063800;28;20453;-74
2022/07/19 08:59:17;;;;;;;5.60;3.35;;;;;;;26.27;47.32;101597.47;5061171;28;20047;-75
2022/07/19 09:01:42;;;;;;;5.50;3.15;;;;;;;26.35;45.84;101595.06;5063311;28;20035;-74
2022/07/19 09:04:14;;;;;;;8.50;3.42;;;;;;;26.46;47.75;101604.84;5057994;28;20025;-74
2022/07/19 09:06:48;;;;;;;6.65;3.33;;;;;;;26.52;48.92;101603.50;5060656;28;20036;-74
2022/07/19 09:09:16;;;;;;;4.43;3.30;;;;;;;26.62;48.05;101600.91;5064114;28;20028;-74
2022/07/19 09:11:53;;;;;;;6.22;3.00;;;;;;;26.67;45.07;101601.38;5070187;28;20155;-74
2022/07/19 09:14:25;;;;;;;5.97;3.28;;;;;;;26.78;45.74;101590.66;5052310;28;20086;-75
2022/07/19 09:17:06;;;;;;;8.23;3.00;;;;;;;26.83;47.13;101589.44;5045621;28;20426;-74
2022/07/19 09:19:36;;;;;;;5.78;3.20;;;;;;;26.87;47.88;101590.88;5064767;28;20518;-74
2022/07/19 09:22:08;;;;;;;7.15;2.90;;;;;;;26.91;47.06;101581.66;5064869;28;20032;-74
2022/07/19 09:24:37;;;;;;;5.35;3.03;;;;;;;26.97;45.60;101581.16;5063336;28;20032;-75
2022/07/19 09:27:07;;;;;;;7.50;3.05;;;;;;;27.03;45.05;101577.09;5060212;28;20032;-75
2022/07/19 09:29:35;;;;;;;6.97;3.50;;;;;;;27.13;44.17;101585.19;5044972;28;20029;-75
2022/07/19 09:32:05;;;;;;;4.15;2.80;;;;;;;27.21;42.72;101578.22;5061131;28;20472;-75
2022/07/19 09:34:40;;;;;;;7.70;3.47;;;;;;;27.29;41.90;101579.38;5061945;28;20437;-75
2022/07/19 09:37:27;;;;;;;6.72;3.25;;;;;;;27.38;44.46;101570.59;5063731;28;20078;-75
2022/07/19 09:40:01;;;;;;;8.48;3.17;;;;;;;27.46;44.63;101570.78;5063242;28;20033;-74
2022/07/19 09:42:36;;;;;;;5.80;3.08;;;;;;;27.50;45.51;101577.56;5041410;28;20029;-74
2022/07/19 09:45:08;;;;;;;6.30;3.10;;;;;;;27.56;42.82;101569.03;5039504;28;20056;-74
2022/07/19 09:47:37;;;;;;;7.15;3.13;;;;;;;27.60;40.59;101566.91;5040283;28;20036;-74
2022/07/19 09:50:05;;;;;;;7.32;2.97;;;;;;;27.65;41.13;101570.03;5039800;28;20263;-74
2022/07/19 09:52:33;;;;;;;5.72;3.10;;;;;;;27.72;43.38;101568.50;5024181;28;20040;-74
2022/07/19 09:55:01;;;;;;;6.60;2.83;;;;;;;27.81;42.30;101574.03;5040950;28;20415;-75
2022/07/19 09:57:27;;;;;;;6.68;3.20;;;;;;;27.90;39.84;101578.56;5043693;28;20021;-75
2022/07/19 09:59:54;;;;;;;4.10;2.78;;;;;;;27.97;40.35;101566.34;5041051;28;20092;-74
2022/07/19 10:02:22;;;;;;;9.13;3.35;;;;;;;28.02;41.54;101572.13;5042829;28;20063;-75
2022/07/19 10:04:49;;;;;;;6.07;3.00;;;;;;;28.11;42.29;101569.66;5039578;28;20025;-76
2022/07/19 10:07:17;;;;;;;5.30;2.72;;;;;;;28.16;39.25;101573.59;5041129;28;20040;-75
2022/07/19 10:09:44;;;;;;;5.88;2.80;;;;;;;28.23;38.47;101568.53;5041436;28;20033;-76
2022/07/19 10:12:11;;;;;;;6.95;3.20;;;;;;;28.26;39.13;101564.75;5046160;28;20130;-76
2022/07/19 10:14:37;;;;;;;6.80;2.90;;;;;;;28.35;39.71;101565.75;5042673;28;20025;-76
2022/07/19 10:17:14;;;;;;;9.20;3.10;;;;;;;28.42;40.74;101557.03;5044546;28;20385;-75
2022/07/19 10:19:43;;;;;;;5.30;3.30;;;;;;;28.50;40.34;101558.16;5045582;28;20044;-75
2022/07/19 10:22:14;;;;;;;7.10;2.85;;;;;;;28.53;38.02;101556.03;5043630;28;20495;-76
2022/07/19 10:24:57;;;;;;;4.63;2.90;;;;;;;28.65;40.83;101555.91;5044210;28;20499;-76
2022/07/19 10:27:25;;;;;;;9.27;3.08;;;;;;;28.79;38.51;101558.19;5041571;28;20102;-75
2022/07/19 10:29:52;;;;;;;7.53;3.20;;;;;;;28.89;37.18;101556.31;5028877;28;20119;-75
2022/07/19 10:32:17;;;;;;;5.20;2.90;;;;;;;29.00;37.62;101549.13;5039120;28;20025;-75
2022/07/19 10:34:47;;;;;;;6.15;3.08;;;;;;;29.06;39.00;101545.88;5040579;28;20040;-74
2022/07/19 10:37:13;;;;;;;8.55;2.88;;;;;;;29.13;35.74;101538.94;5043127;28;20029;-74
2022/07/19 10:39:39;;;;;;;6.38;3.08;;;;;;;29.25;35.46;101542.31;5042865;28;20029;-74
2022/07/19 10:42:21;;;;;;;5.68;2.80;;;;;;;29.35;36.27;101543.13;5055659;28;20373;-76
2022/07/19 10:44:55;;;;;;;4.35;2.65;;;;;;;29.36;35.69;101542.16;5065009;28;20025;-75
2022/07/19 10:47:21;;;;;;;5.90;3.00;;;;;;;29.38;35.89;101536.63;5059875;28;20039;-76
2022/07/19 10:49:48;;;;;;;4.85;2.65;;;;;;;29.40;36.81;101526.63;5065529;28;20675;-75
2022/07/19 10:52:28;;;;;;;6.45;2.72;;;;;;;29.46;37.00;101534.06;5059128;28;20020;-75
2022/07/19 10:55:25;;;;;;;3.95;2.60;;;;;;;29.50;36.33;101530.13;5067860;28;20583;-75
2022/07/19 10:58:07;;;;;;;5.70;2.60;;;;;;;29.51;36.96;101526.44;5064898;28;20032;-75
2022/07/19 11:00:47;;;;;;;5.57;2.80;;;;;;;29.53;36.01;101521.78;5068559;28;20355;-76
2022/07/19 11:03:33;;;;;;;4.20;2.67;;;;;;;29.60;35.37;101524.72;5059653;28;20032;-75
2022/07/19 11:06:00;;;;;;;6.95;2.60;;;;;;;29.65;35.29;101518.91;5054930;28;20044;-75
2022/07/19 11:08:35;;;;;;;4.97;2.80;;;;;;;29.72;36.04;101513.78;5062664;28;20033;-76
2022/07/19 11:11:08;;;;;;;5.07;3.10;;;;;;;29.81;36.26;101515.53;5060076;28;20032;-75
2022/07/19 11:13:35;;;;;;;5.45;2.83;;;;;;;29.90;38.06;101513.78;5058744;28;20029;-75
2022/07/19 11:16:02;;;;;;;6.68;3.03;;;;;;;29.92;37.26;101511.81;5058995;28;20047;-76
2022/07/19 11:18:29;;;;;;;5.40;3.25;;;;;;;29.96;36.26;101499.81;5061095;28;20531;-74
2022/07/19 11:20:58;;;;;;;8.30;2.88;;;;;;;29.97;37.93;101501.50;5060276;28;20536;-75
2022/07/19 11:23:24;;;;;;;4.68;3.00;;;;;;;29.97;35.88;101501.50;5055362;28;20020;-75
2022/07/19 11:25:50;;;;;;;5.70;3.13;;;;;;;29.97;34.55;101498.84;5051580;28;20040;-76